createdAt,value
2023-04-18T00:00:48.841Z,8.90
2023-04-18T00:05:52.250Z,9.49
2023-04-18T00:10:55.787Z,9.49
2023-04-18T00:16:01.793Z,9.52
2023-04-18T00:21:05.881Z,9.19
2023-04-18T00:26:09.287Z,9.24
2023-04-18T00:31:14.546Z,9.30
2023-04-18T00:36:17.959Z,9.45
2023-04-18T00:41:25.517Z,9.49
2023-04-18T00:46:30.539Z,9.39
2023-04-18T00:51:35.462Z,9.50
2023-04-18T00:56:39.106Z,7.07
2023-04-18T01:01:45.157Z,9.36
2023-04-18T01:06:49.182Z,9.07
2023-04-18T01:11:52.727Z,9.32
2023-04-18T01:16:58.758Z,9.54
2023-04-18T01:22:02.256Z,9.51
2023-04-18T01:27:07.092Z,9.55
2023-04-18T01:32:10.561Z,9.53
2023-04-18T01:37:13.903Z,9.23
2023-04-18T01:42:18.798Z,9.55
2023-04-18T01:47:22.167Z,9.53
2023-04-18T01:52:26.197Z,9.20
2023-04-18T01:57:31.147Z,9.15
2023-04-18T02:02:35.029Z,8.96
2023-04-18T02:07:38.685Z,9.11
2023-04-18T02:12:44.164Z,6.61
2023-04-18T02:17:49.115Z,9.52
2023-04-18T02:22:53.174Z,8.80
2023-04-18T02:27:59.738Z,8.92
2023-04-18T02:33:03.296Z,9.50
2023-04-18T02:38:07.035Z,8.36
2023-04-18T02:43:11.932Z,9.48
2023-04-18T02:48:15.513Z,9.38
2023-04-18T02:53:23.850Z,8.66
2023-04-18T02:58:34.718Z,9.34
2023-04-18T03:03:58.415Z,9.28
2023-04-18T03:09:10.412Z,7.42
2023-04-18T03:14:21.395Z,8.61
2023-04-18T03:19:28.626Z,8.40
2023-04-18T03:24:35.672Z,7.07
2023-04-18T03:29:44.588Z,8.92
2023-04-18T03:34:48.672Z,7.28
2023-04-18T03:39:52.420Z,6.78
2023-04-18T03:44:58.522Z,7.30
2023-04-18T03:50:02.393Z,7.74
2023-04-18T03:55:07.883Z,8.70
2023-04-18T04:00:14.075Z,6.59
2023-04-18T04:05:20.127Z,8.63
2023-04-18T04:10:24.509Z,6.33
2023-04-18T04:15:29.917Z,7.20
2023-04-18T04:20:39.448Z,7.18
2023-04-18T04:33:04.251Z,8.66
2023-04-18T04:38:08.360Z,8.27
2023-04-18T04:43:20.525Z,8.24
2023-04-18T04:48:26.985Z,6.61
2023-04-18T04:53:31.492Z,8.22
2023-04-18T04:58:37.925Z,8.42
2023-04-18T05:04:13.003Z,8.45
2023-04-18T05:09:17.144Z,6.40
2023-04-18T05:14:20.786Z,8.05
2023-04-18T05:19:26.201Z,8.52
2023-04-18T05:24:29.858Z,8.50
2023-04-18T05:29:33.524Z,7.40
2023-04-18T05:34:38.934Z,8.53
2023-04-18T05:39:43.087Z,8.50
2023-04-18T05:44:46.549Z,8.53
2023-04-18T05:49:51.505Z,8.59
2023-04-18T05:54:54.862Z,8.18
2023-04-18T05:59:58.731Z,8.63
2023-04-18T06:05:03.821Z,7.84
2023-04-18T06:10:11.102Z,8.75
2023-04-18T06:15:14.481Z,8.15
2023-04-18T06:20:19.444Z,8.83
2023-04-18T06:25:22.902Z,8.43
2023-04-18T06:30:26.430Z,8.86
2023-04-18T06:35:32.386Z,8.53
2023-04-18T06:40:35.827Z,8.57
2023-04-18T06:45:39.544Z,8.75
2023-04-18T06:50:44.863Z,8.97
2023-04-18T06:55:48.261Z,8.59
2023-04-18T07:00:52.175Z,8.56
2023-04-18T07:05:57.067Z,9.13
2023-04-18T07:11:00.469Z,9.17
2023-04-18T07:16:04.292Z,8.92
2023-04-18T07:21:09.110Z,8.96
2023-04-18T07:26:13.734Z,9.12
2023-04-18T07:31:19.526Z,9.51
2023-04-18T07:36:24.303Z,9.35
2023-04-18T07:41:27.682Z,9.29
2023-04-18T07:46:32.377Z,9.15
2023-04-18T07:51:37.318Z,9.48
2023-04-18T07:56:41.040Z,9.96
2023-04-18T08:01:44.427Z,10.08
2023-04-18T08:06:49.206Z,10.21
2023-04-18T08:11:54.974Z,10.02
2023-04-18T08:16:58.506Z,10.46
2023-04-18T08:22:11.175Z,10.69
2023-04-18T08:27:14.639Z,10.78
2023-04-18T08:32:18.169Z,10.93
2023-04-18T08:37:22.978Z,10.72
2023-04-18T08:42:26.829Z,11.19
2023-04-18T08:47:31.200Z,10.51
2023-04-18T08:52:37.796Z,11.14
2023-04-18T08:57:41.231Z,11.46
2023-04-18T09:02:47.395Z,11.18
2023-04-18T09:07:54.068Z,11.69
2023-04-18T09:12:58.842Z,11.82
2023-04-18T09:18:03.483Z,11.96
2023-04-18T09:23:11.456Z,12.10
2023-04-18T09:28:27.078Z,12.09
2023-04-18T09:33:33.060Z,12.23
2023-04-18T09:38:41.638Z,12.34
2023-04-18T09:43:45.897Z,11.75
2023-04-18T09:48:49.346Z,12.18
2023-04-18T09:53:54.841Z,12.48
2023-04-18T09:59:04.623Z,12.39
2023-04-18T10:04:08.178Z,12.60
2023-04-18T10:09:14.936Z,12.76
2023-04-18T10:14:19.379Z,13.01
2023-04-18T10:19:24.732Z,13.12
2023-04-18T10:24:57.173Z,12.77
2023-04-18T10:30:00.618Z,13.35
2023-04-18T10:35:05.650Z,13.07
2023-04-18T10:40:11.219Z,12.89
2023-04-18T10:45:22.037Z,13.60
2023-04-18T10:50:25.956Z,13.77
2023-04-18T10:55:32.039Z,13.69
2023-04-18T11:00:35.848Z,14.06
2023-04-18T11:05:39.420Z,14.26
2023-04-18T11:10:57.441Z,14.20
2023-04-18T11:16:00.901Z,13.05
2023-04-18T11:21:04.630Z,14.53
2023-04-18T11:26:09.809Z,14.65
2023-04-18T11:31:16.664Z,14.46
2023-04-18T11:36:20.134Z,14.53
2023-04-18T11:41:24.928Z,14.14
2023-04-18T11:46:39.074Z,14.66
2023-04-18T11:51:46.254Z,14.74
2023-04-18T11:56:51.376Z,14.61
2023-04-18T12:02:14.878Z,14.83
2023-04-18T12:07:31.952Z,14.51
2023-04-18T12:12:37.541Z,14.65
2023-04-18T12:17:42.244Z,14.76
2023-04-18T12:22:47.380Z,14.76
2023-04-18T12:27:54.553Z,14.67
2023-04-18T12:32:59.720Z,14.51
2023-04-18T12:38:04.008Z,14.99
2023-04-18T12:43:10.442Z,14.76
2023-04-18T12:48:14.697Z,15.20
2023-04-18T12:53:18.084Z,15.14
2023-04-18T12:58:22.973Z,15.44
2023-04-18T13:03:27.096Z,14.96
2023-04-18T13:08:30.561Z,15.58
2023-04-18T13:13:35.795Z,15.65
2023-04-18T13:18:39.267Z,15.35
2023-04-18T13:23:42.610Z,15.54
2023-04-18T13:28:47.379Z,15.49
2023-04-18T13:33:50.865Z,15.74
2023-04-18T13:38:54.455Z,15.11
2023-04-18T13:43:59.104Z,14.42
2023-04-18T13:49:02.475Z,16.01
2023-04-18T13:54:06.045Z,16.06
2023-04-18T13:59:10.882Z,16.13
2023-04-18T14:04:14.462Z,15.56
2023-04-18T14:09:18.786Z,15.77
2023-04-18T14:14:23.762Z,14.83
2023-04-18T14:19:28.115Z,16.14
2023-04-18T14:24:31.753Z,16.12
2023-04-18T14:29:36.532Z,16.16
2023-04-18T14:34:39.962Z,15.94
2023-04-18T14:39:43.426Z,16.19
2023-04-18T14:44:48.334Z,15.89
2023-04-18T14:49:51.776Z,15.93
2023-04-18T14:54:55.395Z,15.57
2023-04-18T15:00:04.186Z,16.41
2023-04-18T15:05:08.585Z,16.36
2023-04-18T15:10:15.109Z,15.94
2023-04-18T15:15:20.836Z,16.37
2023-04-18T15:20:24.378Z,16.34
2023-04-18T15:25:27.830Z,16.16
2023-04-18T15:30:32.766Z,15.94
2023-04-18T15:35:36.172Z,16.27
2023-04-18T15:40:39.616Z,16.10
2023-04-18T15:45:45.065Z,16.23
2023-04-18T15:50:52.078Z,16.24
2023-04-18T15:55:55.552Z,15.98
2023-04-18T16:01:00.556Z,15.78
2023-04-18T16:06:04.588Z,15.69
2023-04-18T16:11:08.315Z,15.97
2023-04-18T16:16:13.221Z,16.06
2023-04-18T16:21:17.364Z,15.80
2023-04-18T16:26:21.299Z,15.90
2023-04-18T16:31:28.453Z,15.82
2023-04-18T16:36:34.193Z,15.96
2023-04-18T16:41:37.551Z,15.66
2023-04-18T16:46:42.500Z,15.90
2023-04-18T16:51:46.035Z,14.98
2023-04-18T16:56:49.608Z,15.69
2023-04-18T17:01:54.740Z,15.66
2023-04-18T17:06:58.475Z,15.83
2023-04-18T17:12:02.098Z,15.67
2023-04-18T17:17:07.404Z,15.67
2023-04-18T17:22:11.037Z,15.80
2023-04-18T17:27:14.395Z,15.79
2023-04-18T17:32:19.189Z,15.79
2023-04-18T17:37:23.199Z,15.77
2023-04-18T17:42:26.835Z,15.47
2023-04-18T17:47:33.509Z,15.17
2023-04-18T17:52:37.349Z,13.43
2023-04-18T17:57:40.687Z,15.13
2023-04-18T18:02:46.193Z,15.52
2023-04-18T18:07:49.902Z,15.43
2023-04-18T18:12:54.271Z,15.12
2023-04-18T18:17:59.403Z,15.00
2023-04-18T18:23:02.970Z,15.18
2023-04-18T18:28:07.200Z,15.11
2023-04-18T18:33:12.110Z,15.06
2023-04-18T18:38:15.512Z,14.74
2023-04-18T18:43:18.907Z,14.90
2023-04-18T18:48:24.777Z,14.76
2023-04-18T18:53:28.419Z,14.64
2023-04-18T18:58:31.859Z,14.15
2023-04-18T19:03:37.115Z,14.64
2023-04-18T19:08:40.570Z,14.52
2023-04-18T19:13:43.980Z,14.44
2023-04-18T19:18:50.647Z,14.41
2023-04-18T19:23:54.196Z,14.30
2023-04-18T19:28:57.699Z,14.23
2023-04-18T19:34:03.124Z,13.67
2023-04-18T19:39:06.646Z,14.10
2023-04-18T19:44:10.053Z,14.03
2023-04-18T19:49:15.137Z,13.80
2023-04-18T19:54:21.648Z,13.65
2023-04-18T19:59:25.676Z,13.50
2023-04-18T20:04:31.449Z,13.85
2023-04-18T20:09:35.156Z,13.79
2023-04-18T21:31:21.438Z,13.12
2023-04-18T21:36:28.280Z,11.87
2023-04-18T21:41:31.647Z,12.98
2023-04-18T21:46:36.366Z,12.19
2023-04-18T21:51:39.836Z,13.12
2023-04-18T21:56:46.247Z,13.14
2023-04-18T22:01:52.065Z,12.79
2023-04-18T22:06:57.475Z,10.97
2023-04-18T22:12:04.298Z,12.14
2023-04-18T22:17:09.212Z,13.00
2023-04-18T22:22:12.625Z,12.50
2023-04-18T22:27:16.345Z,12.91
2023-04-18T22:32:21.158Z,12.64
2023-04-18T22:37:26.766Z,10.51
2023-04-18T22:42:30.380Z,12.57
2023-04-18T22:47:35.770Z,12.47
2023-04-18T22:52:39.171Z,12.41
2023-04-18T22:57:42.783Z,12.68
2023-04-18T23:02:47.795Z,12.55
2023-04-18T23:07:51.310Z,12.29
2023-04-18T23:12:54.709Z,12.58
2023-04-18T23:17:59.513Z,12.29
2023-04-18T23:23:03.437Z,12.13
2023-04-18T23:28:06.921Z,12.58
2023-04-18T23:33:11.698Z,12.58
2023-04-18T23:38:15.155Z,11.99
2023-04-18T23:43:18.715Z,12.46
2023-04-18T23:48:24.635Z,12.44
2023-04-18T23:53:28.000Z,12.38
2023-04-18T23:58:31.830Z,12.35
